sensor_id;sensor_type;location;lat;lon;timestamp;pressure;altitude;pressure_sealevel;temperature;humidity
36932;BME280;22847;42.654;23.370;2023-04-22T00:02:25;94197.72;;;11.84;59.87
36932;BME280;22847;42.654;23.370;2023-04-22T00:04:51;94369.69;;;12.85;59.63
36932;BME280;22847;42.654;23.370;2023-04-22T00:07:17;94378.06;;;12.65;59.53
36932;BME280;22847;42.654;23.370;2023-04-22T00:09:42;94185.91;;;11.63;59.77
36932;BME280;22847;42.654;23.370;2023-04-22T00:12:08;94314.31;;;12.33;60.49
36932;BME280;22847;42.654;23.370;2023-04-22T00:14:36;94363.50;;;12.46;60.99
36932;BME280;22847;42.654;23.370;2023-04-22T00:17:01;94351.72;;;12.34;61.35
36932;BME280;22847;42.654;23.370;2023-04-22T00:19:27;94203.31;;;11.31;61.75
36932;BME280;22847;42.654;23.370;2023-04-22T00:21:53;94321.94;;;11.78;62.22
36932;BME280;22847;42.654;23.370;2023-04-22T00:24:18;94322.53;;;11.64;62.58
36932;BME280;22847;42.654;23.370;2023-04-22T00:26:44;94336.66;;;11.79;62.48
36932;BME280;22847;42.654;23.370;2023-04-22T00:29:09;94380.59;;;12.00;61.66
36932;BME280;22847;42.654;23.370;2023-04-22T00:31:34;94332.66;;;11.67;61.65
36932;BME280;22847;42.654;23.370;2023-04-22T00:34:00;94359.38;;;12.03;61.13
36932;BME280;22847;42.654;23.370;2023-04-22T00:36:25;94360.88;;;12.14;60.97
36932;BME280;22847;42.654;23.370;2023-04-22T00:38:52;94210.94;;;11.08;61.24
36932;BME280;22847;42.654;23.370;2023-04-22T00:41:18;94377.31;;;11.98;60.75
36932;BME280;22847;42.654;23.370;2023-04-22T00:43:45;94372.63;;;12.18;60.34
36932;BME280;22847;42.654;23.370;2023-04-22T00:46:10;94373.03;;;11.81;61.49
36932;BME280;22847;42.654;23.370;2023-04-22T00:48:36;94235.03;;;10.94;61.67
36932;BME280;22847;42.654;23.370;2023-04-22T00:51:02;94390.84;;;11.93;61.90
36932;BME280;22847;42.654;23.370;2023-04-22T00:53:28;94330.72;;;11.69;62.12
36932;BME280;22847;42.654;23.370;2023-04-22T00:55:53;94261.06;;;11.19;62.03
36932;BME280;22847;42.654;23.370;2023-04-22T00:58:20;94342.69;;;11.88;61.79
36932;BME280;22847;42.654;23.370;2023-04-22T01:00:47;94341.88;;;11.79;62.27
36932;BME280;22847;42.654;23.370;2023-04-22T01:03:13;94368.47;;;11.83;62.63
36932;BME280;22847;42.654;23.370;2023-04-22T01:05:39;94385.16;;;11.90;63.16
36932;BME280;22847;42.654;23.370;2023-04-22T01:08:05;94204.56;;;10.60;63.22
36932;BME280;22847;42.654;23.370;2023-04-22T01:10:30;94382.66;;;11.72;63.39
36932;BME280;22847;42.654;23.370;2023-04-22T01:12:56;94185.47;;;10.52;64.09
36932;BME280;22847;42.654;23.370;2023-04-22T01:15:22;94049.22;;;9.66;64.34
36932;BME280;22847;42.654;23.370;2023-04-22T01:17:47;94340.84;;;11.30;64.94
36932;BME280;22847;42.654;23.370;2023-04-22T01:20:13;94331.41;;;11.29;65.30
36932;BME280;22847;42.654;23.370;2023-04-22T01:22:41;94380.31;;;11.69;65.17
36932;BME280;22847;42.654;23.370;2023-04-22T01:25:08;94352.69;;;11.50;64.84
36932;BME280;22847;42.654;23.370;2023-04-22T01:27:34;94413.03;;;11.81;64.56
36932;BME280;22847;42.654;23.370;2023-04-22T01:29:59;94385.28;;;11.80;65.05
36932;BME280;22847;42.654;23.370;2023-04-22T01:32:25;94191.06;;;10.65;64.81
36932;BME280;22847;42.654;23.370;2023-04-22T01:34:51;94384.16;;;11.83;65.05
36932;BME280;22847;42.654;23.370;2023-04-22T01:37:17;94352.22;;;11.63;64.81
36932;BME280;22847;42.654;23.370;2023-04-22T01:39:42;94380.69;;;11.74;64.93
36932;BME280;22847;42.654;23.370;2023-04-22T01:42:08;94201.03;;;10.69;64.75
36932;BME280;22847;42.654;23.370;2023-04-22T01:44:35;94380.38;;;11.77;65.08
36932;BME280;22847;42.654;23.370;2023-04-22T01:47:00;94184.03;;;10.57;64.71
36932;BME280;22847;42.654;23.370;2023-04-22T01:49:25;94368.56;;;11.65;65.02
36932;BME280;22847;42.654;23.370;2023-04-22T01:51:51;94359.09;;;11.64;65.07
36932;BME280;22847;42.654;23.370;2023-04-22T01:54:16;94367.66;;;11.74;64.94
36932;BME280;22847;42.654;23.370;2023-04-22T01:56:49;94247.91;;;10.95;65.09
36932;BME280;22847;42.654;23.370;2023-04-22T01:59:14;94337.16;;;11.49;65.20
36932;BME280;22847;42.654;23.370;2023-04-22T02:01:40;94370.91;;;11.76;65.40
36932;BME280;22847;42.654;23.370;2023-04-22T02:04:05;94377.97;;;11.84;65.33
36932;BME280;22847;42.654;23.370;2023-04-22T02:06:30;94375.03;;;11.87;65.59
36932;BME280;22847;42.654;23.370;2023-04-22T02:08:56;94358.88;;;11.57;65.38
36932;BME280;22847;42.654;23.370;2023-04-22T02:11:21;94357.09;;;11.58;65.67
36932;BME280;22847;42.654;23.370;2023-04-22T02:13:47;94405.84;;;11.75;65.49
36932;BME280;22847;42.654;23.370;2023-04-22T02:16:12;94187.97;;;10.61;65.51
36932;BME280;22847;42.654;23.370;2023-04-22T02:18:38;94348.97;;;11.61;65.20
36932;BME280;22847;42.654;23.370;2023-04-22T02:21:03;94183.88;;;10.59;65.19
36932;BME280;22847;42.654;23.370;2023-04-22T02:23:29;94175.41;;;10.57;65.51
36932;BME280;22847;42.654;23.370;2023-04-22T02:25:55;94368.72;;;11.72;66.20
36932;BME280;22847;42.654;23.370;2023-04-22T02:28:21;94374.06;;;11.54;65.85
36932;BME280;22847;42.654;23.370;2023-04-22T02:30:47;94417.88;;;11.34;66.27
36932;BME280;22847;42.654;23.370;2023-04-22T02:33:12;94371.94;;;11.57;65.31
36932;BME280;22847;42.654;23.370;2023-04-22T02:35:38;94218.31;;;10.70;64.95
36932;BME280;22847;42.654;23.370;2023-04-22T02:38:03;94366.25;;;11.62;65.06
36932;BME280;22847;42.654;23.370;2023-04-22T02:40:29;94336.59;;;11.21;65.02
36932;BME280;22847;42.654;23.370;2023-04-22T02:42:55;94392.16;;;11.47;65.00
36932;BME280;22847;42.654;23.370;2023-04-22T02:45:20;94207.22;;;10.35;65.11
36932;BME280;22847;42.654;23.370;2023-04-22T02:47:46;94385.47;;;11.53;64.72
36932;BME280;22847;42.654;23.370;2023-04-22T02:50:11;94389.72;;;11.54;64.53
36932;BME280;22847;42.654;23.370;2023-04-22T02:52:37;94387.09;;;11.46;64.21
36932;BME280;22847;42.654;23.370;2023-04-22T02:55:02;94386.66;;;11.58;63.87
36932;BME280;22847;42.654;23.370;2023-04-22T02:57:28;94242.91;;;10.68;64.07
36932;BME280;22847;42.654;23.370;2023-04-22T02:59:53;94112.00;;;9.89;63.93
36932;BME280;22847;42.654;23.370;2023-04-22T03:02:19;94418.53;;;11.70;63.92
36932;BME280;22847;42.654;23.370;2023-04-22T03:04:44;94369.13;;;11.43;64.29
36932;BME280;22847;42.654;23.370;2023-04-22T03:07:10;94421.75;;;11.64;64.11
36932;BME280;22847;42.654;23.370;2023-04-22T03:09:36;94358.31;;;11.30;64.00
36932;BME280;22847;42.654;23.370;2023-04-22T03:12:01;94369.31;;;11.49;63.92
36932;BME280;22847;42.654;23.370;2023-04-22T03:14:27;94410.16;;;11.67;63.55
36932;BME280;22847;42.654;23.370;2023-04-22T03:16:52;94190.13;;;10.40;63.95
36932;BME280;22847;42.654;23.370;2023-04-22T03:19:18;94371.28;;;11.47;64.20
36932;BME280;22847;42.654;23.370;2023-04-22T03:21:43;94362.03;;;11.27;64.09
36932;BME280;22847;42.654;23.370;2023-04-22T03:24:08;94267.56;;;10.82;64.20
36932;BME280;22847;42.654;23.370;2023-04-22T03:26:34;94344.09;;;11.24;64.33
36932;BME280;22847;42.654;23.370;2023-04-22T03:28:59;94385.06;;;11.32;64.63
36932;BME280;22847;42.654;23.370;2023-04-22T03:31:25;94391.59;;;11.36;64.90
36932;BME280;22847;42.654;23.370;2023-04-22T03:33:50;94271.28;;;10.71;64.79
36932;BME280;22847;42.654;23.370;2023-04-22T03:36:16;94405.25;;;11.55;65.00
36932;BME280;22847;42.654;23.370;2023-04-22T03:38:41;94406.97;;;11.39;65.24
36932;BME280;22847;42.654;23.370;2023-04-22T03:41:07;94409.06;;;11.09;65.29
36932;BME280;22847;42.654;23.370;2023-04-22T03:43:32;94283.66;;;10.43;64.83
36932;BME280;22847;42.654;23.370;2023-04-22T03:45:58;94416.31;;;11.15;65.00
36932;BME280;22847;42.654;23.370;2023-04-22T03:48:23;94417.19;;;11.32;64.38
36932;BME280;22847;42.654;23.370;2023-04-22T03:50:49;94398.69;;;11.17;64.28
36932;BME280;22847;42.654;23.370;2023-04-22T03:53:14;94275.34;;;10.40;64.05
36932;BME280;22847;42.654;23.370;2023-04-22T03:55:40;94223.47;;;10.11;64.20
36932;BME280;22847;42.654;23.370;2023-04-22T03:58:05;94274.97;;;10.35;64.50
36932;BME280;22847;42.654;23.370;2023-04-22T04:00:31;94384.53;;;11.20;63.80
36932;BME280;22847;42.654;23.370;2023-04-22T04:02:56;94253.78;;;10.12;63.83
36932;BME280;22847;42.654;23.370;2023-04-22T04:05:22;94379.72;;;11.07;63.94
36932;BME280;22847;42.654;23.370;2023-04-22T04:07:47;94425.75;;;11.42;63.87
36932;BME280;22847;42.654;23.370;2023-04-22T04:10:13;94433.38;;;11.36;63.22
36932;BME280;22847;42.654;23.370;2023-04-22T04:12:38;94386.78;;;10.89;63.73
36932;BME280;22847;42.654;23.370;2023-04-22T04:15:04;94430.72;;;11.28;63.49
36932;BME280;22847;42.654;23.370;2023-04-22T04:17:29;94242.22;;;10.14;62.74
36932;BME280;22847;42.654;23.370;2023-04-22T04:19:55;94436.38;;;11.49;63.01
36932;BME280;22847;42.654;23.370;2023-04-22T04:22:20;94438.91;;;11.33;62.19
36932;BME280;22847;42.654;23.370;2023-04-22T04:24:46;94404.88;;;11.42;61.41
36932;BME280;22847;42.654;23.370;2023-04-22T04:27:13;94427.81;;;11.64;61.66
36932;BME280;22847;42.654;23.370;2023-04-22T04:29:38;94402.06;;;12.52;59.67
36932;BME280;22847;42.654;23.370;2023-04-22T04:32:08;94430.56;;;14.67;54.04
36932;BME280;22847;42.654;23.370;2023-04-22T04:34:34;94440.59;;;16.41;48.77
36932;BME280;22847;42.654;23.370;2023-04-22T04:36:59;94386.16;;;18.02;44.52
36932;BME280;22847;42.654;23.370;2023-04-22T04:39:25;94460.47;;;19.27;41.64
36932;BME280;22847;42.654;23.370;2023-04-22T04:41:53;94437.88;;;20.48;39.16
36932;BME280;22847;42.654;23.370;2023-04-22T04:44:19;94291.47;;;20.28;37.13
36932;BME280;22847;42.654;23.370;2023-04-22T04:46:45;94419.25;;;20.10;38.28
36932;BME280;22847;42.654;23.370;2023-04-22T04:49:10;94329.78;;;19.74;38.62
36932;BME280;22847;42.654;23.370;2023-04-22T04:51:37;94442.28;;;20.99;37.59
36932;BME280;22847;42.654;23.370;2023-04-22T04:54:03;94449.94;;;21.20;37.28
36932;BME280;22847;42.654;23.370;2023-04-22T04:56:28;94434.81;;;19.80;39.23
36932;BME280;22847;42.654;23.370;2023-04-22T04:58:55;94458.84;;;19.59;40.51
36932;BME280;22847;42.654;23.370;2023-04-22T05:01:20;94473.34;;;18.63;42.55
36932;BME280;22847;42.654;23.370;2023-04-22T05:03:46;94193.50;;;16.53;43.44
36932;BME280;22847;42.654;23.370;2023-04-22T05:06:11;94462.66;;;17.68;45.15
36932;BME280;22847;42.654;23.370;2023-04-22T05:08:37;94434.22;;;17.35;45.73
36932;BME280;22847;42.654;23.370;2023-04-22T05:11:02;94501.66;;;17.72;45.94
36932;BME280;22847;42.654;23.370;2023-04-22T05:13:27;94461.06;;;17.46;46.70
36932;BME280;22847;42.654;23.370;2023-04-22T05:15:53;94454.13;;;17.66;45.97
36932;BME280;22847;42.654;23.370;2023-04-22T05:18:19;94461.84;;;17.67;45.92
36932;BME280;22847;42.654;23.370;2023-04-22T05:20:44;94316.72;;;16.22;47.51
36932;BME280;22847;42.654;23.370;2023-04-22T05:23:10;94485.44;;;17.26;47.07
36932;BME280;22847;42.654;23.370;2023-04-22T05:25:35;94357.75;;;16.37;47.55
36932;BME280;22847;42.654;23.370;2023-04-22T05:28:01;94468.44;;;16.65;48.30
36932;BME280;22847;42.654;23.370;2023-04-22T05:30:26;94476.41;;;17.14;46.95
36932;BME280;22847;42.654;23.370;2023-04-22T05:32:51;94475.53;;;16.86;46.93
36932;BME280;22847;42.654;23.370;2023-04-22T05:35:17;94470.81;;;16.60;47.76
36932;BME280;22847;42.654;23.370;2023-04-22T05:37:42;94459.69;;;16.29;48.63
36932;BME280;22847;42.654;23.370;2023-04-22T05:40:08;94481.56;;;16.29;48.52
36932;BME280;22847;42.654;23.370;2023-04-22T05:42:33;94436.00;;;16.29;48.32
36932;BME280;22847;42.654;23.370;2023-04-22T05:44:59;94474.97;;;16.40;47.92
36932;BME280;22847;42.654;23.370;2023-04-22T05:47:24;94286.97;;;14.76;49.35
36932;BME280;22847;42.654;23.370;2023-04-22T05:49:50;94479.03;;;16.06;49.18
36932;BME280;22847;42.654;23.370;2023-04-22T05:52:15;94441.78;;;15.36;50.05
36932;BME280;22847;42.654;23.370;2023-04-22T05:54:42;94477.38;;;15.76;49.58
36932;BME280;22847;42.654;23.370;2023-04-22T05:57:07;94430.44;;;15.73;49.48
36932;BME280;22847;42.654;23.370;2023-04-22T05:59:33;94436.53;;;15.36;49.95
36932;BME280;22847;42.654;23.370;2023-04-22T06:01:58;94446.19;;;15.58;50.99
36932;BME280;22847;42.654;23.370;2023-04-22T06:04:24;94476.09;;;15.72;50.99
36932;BME280;22847;42.654;23.370;2023-04-22T06:06:49;94456.34;;;15.91;50.98
36932;BME280;22847;42.654;23.370;2023-04-22T06:09:18;94443.75;;;16.51;50.29
36932;BME280;22847;42.654;23.370;2023-04-22T06:11:44;94459.59;;;16.94;49.42
36932;BME280;22847;42.654;23.370;2023-04-22T06:14:09;94493.50;;;17.46;49.08
36932;BME280;22847;42.654;23.370;2023-04-22T06:16:36;94448.88;;;17.45;47.19
36932;BME280;22847;42.654;23.370;2023-04-22T06:19:01;94471.31;;;17.83;47.48
36932;BME280;22847;42.654;23.370;2023-04-22T06:21:27;94428.34;;;17.96;46.27
36932;BME280;22847;42.654;23.370;2023-04-22T06:23:52;94450.34;;;18.16;46.49
36932;BME280;22847;42.654;23.370;2023-04-22T06:26:18;94474.69;;;18.52;45.64
36932;BME280;22847;42.654;23.370;2023-04-22T06:28:43;94478.84;;;18.68;45.83
36932;BME280;22847;42.654;23.370;2023-04-22T06:31:09;94514.00;;;18.75;45.63
36932;BME280;22847;42.654;23.370;2023-04-22T06:33:34;94466.66;;;18.80;45.09
36932;BME280;22847;42.654;23.370;2023-04-22T06:36:00;94427.03;;;18.67;45.51
36932;BME280;22847;42.654;23.370;2023-04-22T06:38:25;94480.91;;;18.86;45.40
36932;BME280;22847;42.654;23.370;2023-04-22T06:40:51;94488.59;;;18.67;46.58
36932;BME280;22847;42.654;23.370;2023-04-22T06:43:16;94470.88;;;18.61;46.16
36932;BME280;22847;42.654;23.370;2023-04-22T06:45:41;94478.69;;;18.96;46.81
36932;BME280;22847;42.654;23.370;2023-04-22T06:48:07;94451.84;;;18.92;46.00
36932;BME280;22847;42.654;23.370;2023-04-22T06:50:32;94476.03;;;18.89;46.38
36932;BME280;22847;42.654;23.370;2023-04-22T06:52:58;94478.88;;;18.81;45.64
36932;BME280;22847;42.654;23.370;2023-04-22T06:55:26;94512.50;;;18.53;46.56
36932;BME280;22847;42.654;23.370;2023-04-22T06:57:51;94451.78;;;18.66;46.99
36932;BME280;22847;42.654;23.370;2023-04-22T07:00:17;94482.81;;;19.18;45.32
36932;BME280;22847;42.654;23.370;2023-04-22T07:02:42;94473.91;;;19.52;44.65
36932;BME280;22847;42.654;23.370;2023-04-22T07:05:08;94474.09;;;19.70;43.50
36932;BME280;22847;42.654;23.370;2023-04-22T07:07:33;94451.69;;;19.73;43.41
36932;BME280;22847;42.654;23.370;2023-04-22T07:09:59;94476.81;;;20.28;43.20
36932;BME280;22847;42.654;23.370;2023-04-22T07:12:24;94346.84;;;19.91;42.09
36932;BME280;22847;42.654;23.370;2023-04-22T07:14:50;94456.78;;;20.96;40.28
36932;BME280;22847;42.654;23.370;2023-04-22T07:17:15;94373.97;;;20.38;40.43
36932;BME280;22847;42.654;23.370;2023-04-22T07:19:43;94455.44;;;20.80;40.34
36932;BME280;22847;42.654;23.370;2023-04-22T07:22:09;94480.97;;;21.13;40.82
36932;BME280;22847;42.654;23.370;2023-04-22T07:24:34;94476.22;;;21.21;41.06
36932;BME280;22847;42.654;23.370;2023-04-22T07:27:01;94483.72;;;21.31;41.18
36932;BME280;22847;42.654;23.370;2023-04-22T07:29:27;94484.81;;;21.48;40.71
36932;BME280;22847;42.654;23.370;2023-04-22T07:31:52;94471.22;;;21.38;40.34
36932;BME280;22847;42.654;23.370;2023-04-22T07:34:18;94258.66;;;19.97;40.00
36932;BME280;22847;42.654;23.370;2023-04-22T07:36:43;94434.94;;;21.01;39.52
36932;BME280;22847;42.654;23.370;2023-04-22T07:39:09;94456.75;;;21.03;39.13
36932;BME280;22847;42.654;23.370;2023-04-22T07:41:34;94479.44;;;21.30;39.62
36932;BME280;22847;42.654;23.370;2023-04-22T07:44:00;94443.00;;;21.19;39.46
36932;BME280;22847;42.654;23.370;2023-04-22T07:46:27;94463.91;;;20.96;40.13
36932;BME280;22847;42.654;23.370;2023-04-22T07:48:52;94503.44;;;21.04;40.68
36932;BME280;22847;42.654;23.370;2023-04-22T07:51:18;94402.50;;;20.74;39.75
36932;BME280;22847;42.654;23.370;2023-04-22T07:53:43;94500.97;;;21.47;38.99
36932;BME280;22847;42.654;23.370;2023-04-22T07:56:09;94441.63;;;21.03;38.51
36932;BME280;22847;42.654;23.370;2023-04-22T07:58:34;94458.91;;;21.19;39.63
36932;BME280;22847;42.654;23.370;2023-04-22T08:01:00;94358.25;;;20.74;39.82
36932;BME280;22847;42.654;23.370;2023-04-22T08:03:25;94332.47;;;20.88;39.31
36932;BME280;22847;42.654;23.370;2023-04-22T08:05:51;94441.72;;;21.77;38.86
36932;BME280;22847;42.654;23.370;2023-04-22T08:08:16;94497.56;;;22.14;37.95
36932;BME280;22847;42.654;23.370;2023-04-22T08:10:42;94468.34;;;21.89;37.23
36932;BME280;22847;42.654;23.370;2023-04-22T08:13:07;94450.31;;;21.73;37.51
36932;BME280;22847;42.654;23.370;2023-04-22T08:15:33;94425.84;;;21.46;37.71
36932;BME280;22847;42.654;23.370;2023-04-22T08:17:58;94465.25;;;21.18;38.49
36932;BME280;22847;42.654;23.370;2023-04-22T08:20:23;94432.19;;;20.82;38.83
36932;BME280;22847;42.654;23.370;2023-04-22T08:22:50;94465.25;;;21.18;39.20
36932;BME280;22847;42.654;23.370;2023-04-22T08:25:21;94313.41;;;20.48;38.11
36932;BME280;22847;42.654;23.370;2023-04-22T08:27:49;94326.16;;;20.89;38.26
36932;BME280;22847;42.654;23.370;2023-04-22T08:30:15;94310.94;;;20.78;38.00
36932;BME280;22847;42.654;23.370;2023-04-22T08:32:40;94448.91;;;21.46;38.36
36932;BME280;22847;42.654;23.370;2023-04-22T08:35:06;94443.66;;;21.08;38.58
36932;BME280;22847;42.654;23.370;2023-04-22T08:37:32;94445.09;;;21.04;39.08
36932;BME280;22847;42.654;23.370;2023-04-22T08:39:58;94300.16;;;20.48;38.13
36932;BME280;22847;42.654;23.370;2023-04-22T08:42:24;94429.59;;;21.63;37.32
36932;BME280;22847;42.654;23.370;2023-04-22T08:44:52;94439.50;;;21.74;37.67
36932;BME280;22847;42.654;23.370;2023-04-22T08:47:19;94282.72;;;21.15;36.56
36932;BME280;22847;42.654;23.370;2023-04-22T08:49:45;94409.09;;;22.13;36.99
36932;BME280;22847;42.654;23.370;2023-04-22T08:52:11;94393.38;;;22.12;36.35
36932;BME280;22847;42.654;23.370;2023-04-22T08:54:39;94430.63;;;22.05;36.31
36932;BME280;22847;42.654;23.370;2023-04-22T08:57:06;94417.28;;;22.12;36.79
36932;BME280;22847;42.654;23.370;2023-04-22T08:59:33;94431.47;;;22.06;38.26
36932;BME280;22847;42.654;23.370;2023-04-22T09:02:00;94415.22;;;21.96;37.12
36932;BME280;22847;42.654;23.370;2023-04-22T09:04:26;94276.47;;;21.27;36.31
36932;BME280;22847;42.654;23.370;2023-04-22T09:06:52;94184.28;;;21.05;35.89
36932;BME280;22847;42.654;23.370;2023-04-22T09:09:18;94405.41;;;22.62;36.43
36932;BME280;22847;42.654;23.370;2023-04-22T09:11:44;94410.88;;;22.86;36.63
36932;BME280;22847;42.654;23.370;2023-04-22T09:14:09;94203.09;;;21.40;34.75
36932;BME280;22847;42.654;23.370;2023-04-22T09:16:46;94413.06;;;22.89;32.74
36932;BME280;22847;42.654;23.370;2023-04-22T09:19:13;94414.63;;;23.08;32.58
36932;BME280;22847;42.654;23.370;2023-04-22T09:21:39;94408.91;;;22.93;33.88
36932;BME280;22847;42.654;23.370;2023-04-22T09:24:10;94369.69;;;22.88;33.23
36932;BME280;22847;42.654;23.370;2023-04-22T09:26:39;94416.59;;;22.53;34.29
36932;BME280;22847;42.654;23.370;2023-04-22T09:29:06;94380.06;;;22.48;35.14
36932;BME280;22847;42.654;23.370;2023-04-22T09:31:34;94417.19;;;22.55;35.78
36932;BME280;22847;42.654;23.370;2023-04-22T09:34:02;94405.22;;;22.64;35.98
36932;BME280;22847;42.654;23.370;2023-04-22T09:36:29;94253.75;;;21.86;34.67
36932;BME280;22847;42.654;23.370;2023-04-22T09:38:57;94243.22;;;21.79;33.95
36932;BME280;22847;42.654;23.370;2023-04-22T09:41:32;94376.19;;;22.62;33.60
36932;BME280;22847;42.654;23.370;2023-04-22T09:43:59;94240.66;;;21.73;32.37
36932;BME280;22847;42.654;23.370;2023-04-22T09:46:26;94414.25;;;22.45;33.49
36932;BME280;22847;42.654;23.370;2023-04-22T09:48:54;94381.56;;;22.26;34.04
36932;BME280;22847;42.654;23.370;2023-04-22T09:51:20;94368.44;;;22.13;33.53
36932;BME280;22847;42.654;23.370;2023-04-22T09:54:05;94374.09;;;21.37;31.90
36932;BME280;22847;42.654;23.370;2023-04-22T09:56:47;94374.53;;;20.78;33.05
36932;BME280;22847;42.654;23.370;2023-04-22T09:59:26;94384.53;;;20.38;34.65
36932;BME280;22847;42.654;23.370;2023-04-22T10:01:57;94390.91;;;20.24;36.67
36932;BME280;22847;42.654;23.370;2023-04-22T10:04:24;94387.00;;;20.39;36.78
36932;BME280;22847;42.654;23.370;2023-04-22T10:06:51;94417.44;;;20.62;35.45
36932;BME280;22847;42.654;23.370;2023-04-22T10:09:18;94403.84;;;20.52;34.85
36932;BME280;22847;42.654;23.370;2023-04-22T10:11:45;94421.13;;;20.54;34.85
36932;BME280;22847;42.654;23.370;2023-04-22T10:14:11;94371.22;;;20.07;34.83
36932;BME280;22847;42.654;23.370;2023-04-22T10:16:39;94214.06;;;18.92;35.18
36932;BME280;22847;42.654;23.370;2023-04-22T10:19:06;94350.22;;;19.54;35.23
36932;BME280;22847;42.654;23.370;2023-04-22T10:21:34;94380.53;;;20.16;47.00
36932;BME280;22847;42.654;23.370;2023-04-22T10:24:06;94390.53;;;20.58;46.79
36932;BME280;22847;42.654;23.370;2023-04-22T10:29:14;94411.63;;;21.41;43.77
36932;BME280;22847;42.654;23.370;2023-04-22T10:31:54;94080.66;;;19.52;35.76
36932;BME280;22847;42.654;23.370;2023-04-22T10:34:21;94355.53;;;20.56;32.93
36932;BME280;22847;42.654;23.370;2023-04-22T10:37:02;94370.97;;;20.59;33.16
36932;BME280;22847;42.654;23.370;2023-04-22T10:39:29;94363.75;;;20.41;34.17
36932;BME280;22847;42.654;23.370;2023-04-22T10:44:45;94374.97;;;19.79;34.03
36932;BME280;22847;42.654;23.370;2023-04-22T10:47:10;94395.00;;;20.13;34.14
36932;BME280;22847;42.654;23.370;2023-04-22T10:49:36;94114.13;;;18.76;34.15
36932;BME280;22847;42.654;23.370;2023-04-22T10:52:03;94370.56;;;20.62;35.25
36932;BME280;22847;42.654;23.370;2023-04-22T10:59:40;94339.19;;;20.59;31.30
36932;BME280;22847;42.654;23.370;2023-04-22T11:02:06;94343.75;;;20.45;31.91
36932;BME280;22847;42.654;23.370;2023-04-22T11:04:32;94323.19;;;19.96;31.62
36932;BME280;22847;42.654;23.370;2023-04-22T11:09:44;94363.50;;;20.49;31.12
36932;BME280;22847;42.654;23.370;2023-04-22T11:17:37;94209.56;;;20.01;33.11
36932;BME280;22847;42.654;23.370;2023-04-22T11:20:05;94364.91;;;20.52;32.67
36932;BME280;22847;42.654;23.370;2023-04-22T11:22:35;94218.06;;;19.21;34.33
36932;BME280;22847;42.654;23.370;2023-04-22T11:25:01;94368.91;;;19.72;35.70
36932;BME280;22847;42.654;23.370;2023-04-22T11:27:28;94374.81;;;20.19;34.72
36932;BME280;22847;42.654;23.370;2023-04-22T11:32:35;94311.09;;;20.14;34.96
36932;BME280;22847;42.654;23.370;2023-04-22T11:37:43;94387.06;;;20.96;36.32
36932;BME280;22847;42.654;23.370;2023-04-22T11:40:11;94274.56;;;19.33;34.83
36932;BME280;22847;42.654;23.370;2023-04-22T11:42:37;94355.56;;;19.98;37.59
36932;BME280;22847;42.654;23.370;2023-04-22T11:45:04;94257.06;;;19.32;37.89
36932;BME280;22847;42.654;23.370;2023-04-22T11:47:30;94354.13;;;20.02;37.99
36932;BME280;22847;42.654;23.370;2023-04-22T11:52:21;94379.41;;;19.92;37.40
36932;BME280;22847;42.654;23.370;2023-04-22T11:54:47;94362.75;;;19.85;36.87
36932;BME280;22847;42.654;23.370;2023-04-22T11:57:12;94221.19;;;18.13;36.22
36932;BME280;22847;42.654;23.370;2023-04-22T11:59:41;94399.41;;;18.89;37.28
36932;BME280;22847;42.654;23.370;2023-04-22T12:02:07;94416.09;;;19.16;39.06
36932;BME280;22847;42.654;23.370;2023-04-22T12:04:37;94395.78;;;19.56;40.55
36932;BME280;22847;42.654;23.370;2023-04-22T12:07:04;94412.25;;;19.58;37.49
36932;BME280;22847;42.654;23.370;2023-04-22T12:09:29;94336.63;;;18.98;38.90
36932;BME280;22847;42.654;23.370;2023-04-22T12:11:55;94410.03;;;19.48;40.30
36932;BME280;22847;42.654;23.370;2023-04-22T12:14:27;94286.63;;;18.90;40.99
36932;BME280;22847;42.654;23.370;2023-04-22T12:16:55;94401.47;;;19.66;40.04
36932;BME280;22847;42.654;23.370;2023-04-22T12:19:30;94399.66;;;19.47;39.52
36932;BME280;22847;42.654;23.370;2023-04-22T12:21:56;94360.56;;;19.62;40.30
36932;BME280;22847;42.654;23.370;2023-04-22T12:24:28;94424.09;;;20.20;39.61
36932;BME280;22847;42.654;23.370;2023-04-22T12:26:54;94409.06;;;20.14;38.46
36932;BME280;22847;42.654;23.370;2023-04-22T12:29:31;94403.84;;;19.87;36.38
36932;BME280;22847;42.654;23.370;2023-04-22T12:31:56;94408.13;;;19.88;37.38
36932;BME280;22847;42.654;23.370;2023-04-22T12:34:22;94362.41;;;19.42;38.77
36932;BME280;22847;42.654;23.370;2023-04-22T12:36:47;94402.22;;;19.86;37.86
36932;BME280;22847;42.654;23.370;2023-04-22T12:39:13;94425.75;;;20.14;37.50
36932;BME280;22847;42.654;23.370;2023-04-22T12:41:39;94332.25;;;19.69;38.51
36932;BME280;22847;42.654;23.370;2023-04-22T12:44:05;94403.91;;;20.32;38.76
36932;BME280;22847;42.654;23.370;2023-04-22T12:46:30;94413.13;;;20.10;38.44
36932;BME280;22847;42.654;23.370;2023-04-22T12:48:56;94249.03;;;18.61;38.57
36932;BME280;22847;42.654;23.370;2023-04-22T12:51:22;94373.00;;;19.29;39.24
36932;BME280;22847;42.654;23.370;2023-04-22T12:53:47;94379.91;;;19.30;39.71
36932;BME280;22847;42.654;23.370;2023-04-22T12:56:13;94294.56;;;18.77;40.12
36932;BME280;22847;42.654;23.370;2023-04-22T12:58:38;94281.53;;;17.75;41.79
36932;BME280;22847;42.654;23.370;2023-04-22T13:01:04;94412.59;;;18.15;43.88
36932;BME280;22847;42.654;23.370;2023-04-22T13:03:29;94379.91;;;18.10;44.72
36932;BME280;22847;42.654;23.370;2023-04-22T13:05:54;94397.88;;;18.41;44.45
36932;BME280;22847;42.654;23.370;2023-04-22T13:08:20;94396.16;;;18.87;42.91
36932;BME280;22847;42.654;23.370;2023-04-22T13:10:46;94401.47;;;18.94;41.32
36932;BME280;22847;42.654;23.370;2023-04-22T13:13:12;94401.06;;;19.03;41.12